sensor_id;sensor_type;location;lat;lon;timestamp;pressure;altitude;pressure_sealevel;temperature;humidity
55914;BME280;58179;48.776;9.124;2023-04-03T00:02:13;98070.94;;;4.45;100.00
55914;BME280;58179;48.776;9.124;2023-04-03T00:04:39;98070.34;;;4.43;100.00
55914;BME280;58179;48.776;9.124;2023-04-03T00:07:06;98070.72;;;4.40;100.00
55914;BME280;58179;48.776;9.124;2023-04-03T00:09:32;98073.53;;;4.38;100.00
55914;BME280;58179;48.776;9.124;2023-04-03T00:11:58;98069.09;;;4.39;100.00
55914;BME280;58179;48.776;9.124;2023-04-03T00:14:24;98072.13;;;4.36;100.00
55914;BME280;58179;48.776;9.124;2023-04-03T00:16:51;98071.50;;;4.34;100.00
55914;BME280;58179;48.776;9.124;2023-04-03T00:19:17;98070.69;;;4.33;100.00
55914;BME280;58179;48.776;9.124;2023-04-03T00:21:43;98069.06;;;4.32;100.00
55914;BME280;58179;48.776;9.124;2023-04-03T00:24:11;98065.25;;;4.28;100.00
55914;BME280;58179;48.776;9.124;2023-04-03T00:26:37;98067.59;;;4.23;100.00
55914;BME280;58179;48.776;9.124;2023-04-03T00:29:04;98068.81;;;4.20;100.00
55914;BME280;58179;48.776;9.124;2023-04-03T00:31:30;98069.81;;;4.19;100.00
55914;BME280;58179;48.776;9.124;2023-04-03T00:33:58;98068.81;;;4.20;100.00
55914;BME280;58179;48.776;9.124;2023-04-03T00:36:24;98069.00;;;4.19;100.00
55914;BME280;58179;48.776;9.124;2023-04-03T00:38:50;98070.00;;;4.18;100.00
55914;BME280;58179;48.776;9.124;2023-04-03T00:41:16;98069.19;;;4.17;100.00
55914;BME280;58179;48.776;9.124;2023-04-03T00:43:42;98066.78;;;4.16;100.00
55914;BME280;58179;48.776;9.124;2023-04-03T00:46:08;98066.97;;;4.14;100.00
55914;BME280;58179;48.776;9.124;2023-04-03T00:48:38;98066.53;;;4.11;100.00
55914;BME280;58179;48.776;9.124;2023-04-03T00:51:12;98059.06;;;4.08;100.00
55914;BME280;58179;48.776;9.124;2023-04-03T00:53:44;98060.06;;;4.07;100.00
55914;BME280;58179;48.776;9.124;2023-04-03T00:56:15;98057.03;;;4.03;100.00
55914;BME280;58179;48.776;9.124;2023-04-03T00:58:46;98067.88;;;4.00;100.00
55914;BME280;58179;48.776;9.124;2023-04-03T01:01:18;98061.03;;;3.99;100.00
55914;BME280;58179;48.776;9.124;2023-04-03T01:03:47;98063.84;;;3.98;100.00
55914;BME280;58179;48.776;9.124;2023-04-03T01:06:18;98065.66;;;3.97;100.00
55914;BME280;58179;48.776;9.124;2023-04-03T01:08:45;98058.00;;;3.96;100.00
55914;BME280;58179;48.776;9.124;2023-04-03T01:11:14;98058.19;;;3.94;100.00
55914;BME280;58179;48.776;9.124;2023-04-03T01:13:42;98058.56;;;3.91;100.00
55914;BME280;58179;48.776;9.124;2023-04-03T01:16:08;98056.97;;;3.90;100.00
55914;BME280;58179;48.776;9.124;2023-04-03T01:18:38;98054.72;;;3.87;100.00
55914;BME280;58179;48.776;9.124;2023-04-03T01:21:44;98058.50;;;3.84;100.00
55914;BME280;58179;48.776;9.124;2023-04-03T01:24:25;98057.28;;;3.80;100.00
55914;BME280;58179;48.776;9.124;2023-04-03T01:26:53;98061.09;;;3.78;100.00
55914;BME280;58179;48.776;9.124;2023-04-03T01:29:19;98066.50;;;3.76;100.00
55914;BME280;58179;48.776;9.124;2023-04-03T01:31:54;98060.50;;;3.76;100.00
55914;BME280;58179;48.776;9.124;2023-04-03T01:34:20;98068.53;;;3.74;100.00
55914;BME280;58179;48.776;9.124;2023-04-03T01:36:46;98061.50;;;3.75;100.00
55914;BME280;58179;48.776;9.124;2023-04-03T01:39:13;98058.06;;;3.74;100.00
55914;BME280;58179;48.776;9.124;2023-04-03T01:41:39;98071.97;;;3.75;100.00
55914;BME280;58179;48.776;9.124;2023-04-03T01:44:05;98064.72;;;3.77;100.00
55914;BME280;58179;48.776;9.124;2023-04-03T01:46:31;98067.13;;;3.78;100.00
55914;BME280;58179;48.776;9.124;2023-04-03T01:48:59;98069.94;;;3.77;100.00
55914;BME280;58179;48.776;9.124;2023-04-03T01:51:25;98066.72;;;3.75;100.00
55914;BME280;58179;48.776;9.124;2023-04-03T01:53:51;98067.72;;;3.74;100.00
55914;BME280;58179;48.776;9.124;2023-04-03T01:56:17;98067.72;;;3.74;100.00
55914;BME280;58179;48.776;9.124;2023-04-03T01:58:43;98068.91;;;3.71;100.00
55914;BME280;58179;48.776;9.124;2023-04-03T02:01:09;98065.66;;;3.69;100.00
55914;BME280;58179;48.776;9.124;2023-04-03T02:03:35;98062.22;;;3.69;100.00
55914;BME280;58179;48.776;9.124;2023-04-03T02:06:03;98064.25;;;3.67;100.00
55914;BME280;58179;48.776;9.124;2023-04-03T02:08:29;98070.47;;;3.66;100.00
55914;BME280;58179;48.776;9.124;2023-04-03T02:10:55;98067.88;;;3.66;100.00
55914;BME280;58179;48.776;9.124;2023-04-03T02:13:20;98071.66;;;3.63;100.00
55914;BME280;58179;48.776;9.124;2023-04-03T02:15:46;98067.41;;;3.62;100.00
55914;BME280;58179;48.776;9.124;2023-04-03T02:18:13;98066.44;;;3.63;100.00
55914;BME280;58179;48.776;9.124;2023-04-03T02:20:40;98065.63;;;3.63;100.00
55914;BME280;58179;48.776;9.124;2023-04-03T02:23:07;98067.63;;;3.61;100.00
55914;BME280;58179;48.776;9.124;2023-04-03T02:25:33;98064.00;;;3.62;100.00
55914;BME280;58179;48.776;9.124;2023-04-03T02:27:59;98073.47;;;3.63;100.00
55914;BME280;58179;48.776;9.124;2023-04-03T02:30:26;98073.47;;;3.63;100.00
55914;BME280;58179;48.776;9.124;2023-04-03T02:32:52;98075.91;;;3.64;100.00
55914;BME280;58179;48.776;9.124;2023-04-03T02:35:18;98074.28;;;3.63;100.00
55914;BME280;58179;48.776;9.124;2023-04-03T02:37:44;98076.09;;;3.63;100.00
55914;BME280;58179;48.776;9.124;2023-04-03T02:40:12;98078.69;;;3.63;100.00
55914;BME280;58179;48.776;9.124;2023-04-03T02:42:38;98071.47;;;3.65;100.00
55914;BME280;58179;48.776;9.124;2023-04-03T02:45:05;98075.09;;;3.64;100.00
55914;BME280;58179;48.776;9.124;2023-04-03T02:47:31;98068.22;;;3.63;100.00
55914;BME280;58179;48.776;9.124;2023-04-03T02:49:57;98075.72;;;3.66;100.00
55914;BME280;58179;48.776;9.124;2023-04-03T02:52:23;98075.09;;;3.64;100.00
55914;BME280;58179;48.776;9.124;2023-04-03T02:54:49;98078.53;;;3.64;100.00
55914;BME280;58179;48.776;9.124;2023-04-03T02:57:17;98069.66;;;3.65;100.00
55914;BME280;58179;48.776;9.124;2023-04-03T02:59:45;98079.16;;;3.66;100.00
55914;BME280;58179;48.776;9.124;2023-04-03T03:02:11;98079.97;;;3.67;100.00
55914;BME280;58179;48.776;9.124;2023-04-03T03:04:37;98080.78;;;3.67;100.00
55914;BME280;58179;48.776;9.124;2023-04-03T03:07:03;98072.91;;;3.67;100.00
55914;BME280;58179;48.776;9.124;2023-04-03T03:09:30;98079.56;;;3.70;100.00
55914;BME280;58179;48.776;9.124;2023-04-03T03:11:56;98075.31;;;3.69;100.00
55914;BME280;58179;48.776;9.124;2023-04-03T03:14:23;98077.16;;;3.68;100.00
55914;BME280;58179;48.776;9.124;2023-04-03T03:16:49;98074.53;;;3.68;100.00
55914;BME280;58179;48.776;9.124;2023-04-03T03:19:15;98071.13;;;3.68;100.00
55914;BME280;58179;48.776;9.124;2023-04-03T03:21:42;98064.06;;;3.68;100.00
55914;BME280;58179;48.776;9.124;2023-04-03T03:24:08;98061.44;;;3.68;100.00
55914;BME280;58179;48.776;9.124;2023-04-03T03:26:33;98069.50;;;3.67;100.00
55914;BME280;58179;48.776;9.124;2023-04-03T03:29:01;98062.63;;;3.66;100.00
55914;BME280;58179;48.776;9.124;2023-04-03T03:31:28;98067.88;;;3.66;100.00
55914;BME280;58179;48.776;9.124;2023-04-03T03:33:54;98061.81;;;3.65;100.00
55914;BME280;58179;48.776;9.124;2023-04-03T03:36:20;98064.44;;;3.65;100.00
55914;BME280;58179;48.776;9.124;2023-04-03T03:38:46;98059.19;;;3.65;100.00
55914;BME280;58179;48.776;9.124;2023-04-03T03:41:12;98062.41;;;3.61;100.00
55914;BME280;58179;48.776;9.124;2023-04-03T03:43:38;98060.38;;;3.63;100.00
55914;BME280;58179;48.776;9.124;2023-04-03T03:46:04;98071.03;;;3.61;100.00
55914;BME280;58179;48.776;9.124;2023-04-03T03:48:31;98060.78;;;3.60;100.00
55914;BME280;58179;48.776;9.124;2023-04-03T03:50:57;98062.59;;;3.59;100.00
55914;BME280;58179;48.776;9.124;2023-04-03T03:53:23;98057.16;;;3.61;100.00
55914;BME280;58179;48.776;9.124;2023-04-03T03:55:49;98062.41;;;3.61;100.00
55914;BME280;58179;48.776;9.124;2023-04-03T03:58:15;98063.56;;;3.58;100.00
55914;BME280;58179;48.776;9.124;2023-04-03T04:00:41;98071.25;;;3.60;100.00
55914;BME280;58179;48.776;9.124;2023-04-03T04:03:06;98065.19;;;3.59;100.00
55914;BME280;58179;48.776;9.124;2023-04-03T04:05:34;98068.00;;;3.58;100.00
55914;BME280;58179;48.776;9.124;2023-04-03T04:08:00;98067.38;;;3.56;100.00
55914;BME280;58179;48.776;9.124;2023-04-03T04:10:26;98064.56;;;3.57;100.00
55914;BME280;58179;48.776;9.124;2023-04-03T04:12:51;98066.38;;;3.57;100.00
55914;BME280;58179;48.776;9.124;2023-04-03T04:15:17;98062.94;;;3.56;100.00
55914;BME280;58179;48.776;9.124;2023-04-03T04:17:45;98070.00;;;3.56;100.00
55914;BME280;58179;48.776;9.124;2023-04-03T04:20:11;98062.13;;;3.56;100.00
55914;BME280;58179;48.776;9.124;2023-04-03T04:22:39;98067.38;;;3.56;100.00
55914;BME280;58179;48.776;9.124;2023-04-03T04:25:05;98065.75;;;3.55;100.00
55914;BME280;58179;48.776;9.124;2023-04-03T04:27:32;98063.75;;;3.57;100.00
55914;BME280;58179;48.776;9.124;2023-04-03T04:29:58;98071.63;;;3.57;100.00
55914;BME280;58179;48.776;9.124;2023-04-03T04:32:24;98060.34;;;3.56;100.00
55914;BME280;58179;48.776;9.124;2023-04-03T04:34:50;98062.94;;;3.56;100.00
55914;BME280;58179;48.776;9.124;2023-04-03T04:37:16;98072.59;;;3.56;100.00
55914;BME280;58179;48.776;9.124;2023-04-03T04:39:45;98070.63;;;3.58;100.00
55914;BME280;58179;48.776;9.124;2023-04-03T04:42:11;98063.94;;;3.55;100.00
55914;BME280;58179;48.776;9.124;2023-04-03T04:44:39;98069.19;;;3.55;100.00
55914;BME280;58179;48.776;9.124;2023-04-03T04:47:05;98072.44;;;3.57;100.00
55914;BME280;58179;48.776;9.124;2023-04-03T04:49:31;98064.75;;;3.56;100.00
55914;BME280;58179;48.776;9.124;2023-04-03T04:51:57;98071.00;;;3.55;100.00
55914;BME280;58179;48.776;9.124;2023-04-03T04:54:23;98065.97;;;3.53;100.00
55914;BME280;58179;48.776;9.124;2023-04-03T04:56:51;98063.72;;;3.50;100.00
55914;BME280;58179;48.776;9.124;2023-04-03T04:59:17;98066.69;;;3.47;100.00
55914;BME280;58179;48.776;9.124;2023-04-03T05:01:43;98075.75;;;3.44;100.00
55914;BME280;58179;48.776;9.124;2023-04-03T05:04:09;98076.13;;;3.41;100.00
55914;BME280;58179;48.776;9.124;2023-04-03T05:06:35;98079.72;;;3.40;100.00
55914;BME280;58179;48.776;9.124;2023-04-03T05:09:01;98079.72;;;3.40;100.00
55914;BME280;58179;48.776;9.124;2023-04-03T05:11:27;98082.16;;;3.42;100.00
55914;BME280;58179;48.776;9.124;2023-04-03T05:13:54;98083.59;;;3.44;100.00
55914;BME280;58179;48.776;9.124;2023-04-03T05:16:20;98087.63;;;3.47;100.00
55914;BME280;58179;48.776;9.124;2023-04-03T05:18:46;98080.59;;;3.47;100.00
55914;BME280;58179;48.776;9.124;2023-04-03T05:21:12;98090.69;;;3.50;100.00
55914;BME280;58179;48.776;9.124;2023-04-03T05:23:39;98086.47;;;3.49;100.00
55914;BME280;58179;48.776;9.124;2023-04-03T05:26:05;98091.69;;;3.49;100.00
55914;BME280;58179;48.776;9.124;2023-04-03T05:28:31;98094.13;;;3.51;100.00
55914;BME280;58179;48.776;9.124;2023-04-03T05:30:59;98093.31;;;3.50;100.00
55914;BME280;58179;48.776;9.124;2023-04-03T05:33:25;98101.97;;;3.51;100.00
55914;BME280;58179;48.776;9.124;2023-04-03T05:35:52;98100.16;;;3.52;100.00
55914;BME280;58179;48.776;9.124;2023-04-03T05:38:18;98098.16;;;3.54;100.00
55914;BME280;58179;48.776;9.124;2023-04-03T05:40:44;98100.41;;;3.57;100.00
55914;BME280;58179;48.776;9.124;2023-04-03T05:43:10;98103.03;;;3.57;100.00
55914;BME280;58179;48.776;9.124;2023-04-03T05:45:36;98103.66;;;3.59;100.00
55914;BME280;58179;48.776;9.124;2023-04-03T05:48:05;98110.50;;;3.60;100.00
55914;BME280;58179;48.776;9.124;2023-04-03T05:50:31;98105.50;;;3.65;100.00
55914;BME280;58179;48.776;9.124;2023-04-03T05:52:58;98116.63;;;3.67;100.00
55914;BME280;58179;48.776;9.124;2023-04-03T05:55:24;98105.31;;;3.66;100.00
55914;BME280;58179;48.776;9.124;2023-04-03T05:57:50;98114.00;;;3.67;100.00
55914;BME280;58179;48.776;9.124;2023-04-03T06:00:17;98116.63;;;3.67;100.00
55914;BME280;58179;48.776;9.124;2023-04-03T06:02:43;98112.38;;;3.66;100.00
55914;BME280;58179;48.776;9.124;2023-04-03T06:05:11;98110.56;;;3.66;100.00
55914;BME280;58179;48.776;9.124;2023-04-03T06:07:37;98111.38;;;3.67;100.00
55914;BME280;58179;48.776;9.124;2023-04-03T06:10:05;98120.28;;;3.72;100.00
55914;BME280;58179;48.776;9.124;2023-04-03T06:12:33;98121.72;;;3.75;100.00
55914;BME280;58179;48.776;9.124;2023-04-03T06:14:59;98128.75;;;3.74;100.00
55914;BME280;58179;48.776;9.124;2023-04-03T06:17:25;98126.38;;;3.79;100.00
55914;BME280;58179;48.776;9.124;2023-04-03T06:19:52;98123.97;;;3.84;100.00
55914;BME280;58179;48.776;9.124;2023-04-03T06:22:19;98126.22;;;3.87;100.00
55914;BME280;58179;48.776;9.124;2023-04-03T06:24:46;98130.28;;;3.90;100.00
55914;BME280;58179;48.776;9.124;2023-04-03T06:27:12;98128.72;;;3.96;100.00
55914;BME280;58179;48.776;9.124;2023-04-03T06:29:38;98126.72;;;3.98;100.00
55914;BME280;58179;48.776;9.124;2023-04-03T06:32:05;98135.19;;;4.00;100.00
55914;BME280;58179;48.776;9.124;2023-04-03T06:34:31;98137.84;;;4.06;100.00
55914;BME280;58179;48.776;9.124;2023-04-03T06:36:57;98131.41;;;4.09;100.00
55914;BME280;58179;48.776;9.124;2023-04-03T06:39:25;98126.41;;;4.14;100.00
55914;BME280;58179;48.776;9.124;2023-04-03T06:41:51;98134.34;;;4.20;100.00
55914;BME280;58179;48.776;9.124;2023-04-03T06:44:17;98135.75;;;4.23;100.00
55914;BME280;58179;48.776;9.124;2023-04-03T06:46:44;98127.91;;;4.29;100.00
55914;BME280;58179;48.776;9.124;2023-04-03T06:49:12;98132.19;;;4.37;100.00
55914;BME280;58179;48.776;9.124;2023-04-03T06:51:38;98136.47;;;4.45;100.00
55914;BME280;58179;48.776;9.124;2023-04-03T06:54:05;98137.72;;;4.49;100.00
55914;BME280;58179;48.776;9.124;2023-04-03T06:56:33;98138.56;;;4.56;100.00
55914;BME280;58179;48.776;9.124;2023-04-03T06:58:59;98150.88;;;4.62;100.00
55914;BME280;58179;48.776;9.124;2023-04-03T07:01:27;98141.66;;;4.66;100.00
55914;BME280;58179;48.776;9.124;2023-04-03T07:03:53;98145.28;;;4.65;100.00
55914;BME280;58179;48.776;9.124;2023-04-03T07:06:19;98151.72;;;4.69;100.00
55914;BME280;58179;48.776;9.124;2023-04-03T07:08:46;98153.34;;;4.70;100.00
55914;BME280;58179;48.776;9.124;2023-04-03T07:11:13;98152.97;;;4.73;100.00
55914;BME280;58179;48.776;9.124;2023-04-03T07:13:42;98149.75;;;4.78;100.00
55914;BME280;58179;48.776;9.124;2023-04-03T07:16:09;98153.19;;;4.78;100.00
55914;BME280;58179;48.776;9.124;2023-04-03T07:18:35;98157.44;;;4.79;100.00
55914;BME280;58179;48.776;9.124;2023-04-03T07:21:02;98163.28;;;4.81;100.00
55914;BME280;58179;48.776;9.124;2023-04-03T07:23:28;98166.94;;;4.87;100.00
55914;BME280;58179;48.776;9.124;2023-04-03T07:25:54;98159.91;;;4.94;100.00
55914;BME280;58179;48.776;9.124;2023-04-03T07:28:21;98174.88;;;5.00;100.00
55914;BME280;58179;48.776;9.124;2023-04-03T07:30:53;98160.75;;;5.07;100.00
55914;BME280;58179;48.776;9.124;2023-04-03T07:33:22;98162.78;;;5.12;100.00
55914;BME280;58179;48.776;9.124;2023-04-03T07:35:48;98171.88;;;5.10;100.00
55914;BME280;58179;48.776;9.124;2023-04-03T07:38:14;98166.84;;;5.15;100.00
55914;BME280;58179;48.776;9.124;2023-04-03T07:40:46;98167.50;;;5.30;100.00
55914;BME280;58179;48.776;9.124;2023-04-03T07:43:12;98166.50;;;5.37;100.00
55914;BME280;58179;48.776;9.124;2023-04-03T07:45:37;98163.50;;;5.47;100.00
55914;BME280;58179;48.776;9.124;2023-04-03T07:48:05;98174.84;;;5.61;100.00
55914;BME280;58179;48.776;9.124;2023-04-03T07:50:32;98176.66;;;5.67;100.00
55914;BME280;58179;48.776;9.124;2023-04-03T07:52:58;98172.63;;;5.77;100.00
55914;BME280;58179;48.776;9.124;2023-04-03T07:55:24;98182.72;;;5.87;100.00
55914;BME280;58179;48.776;9.124;2023-04-03T07:57:50;98183.78;;;5.99;100.00
55914;BME280;58179;48.776;9.124;2023-04-03T08:00:17;98180.34;;;6.05;100.00
55914;BME280;58179;48.776;9.124;2023-04-03T08:02:43;98179.34;;;6.06;100.00
55914;BME280;58179;48.776;9.124;2023-04-03T08:05:11;98176.91;;;6.05;100.00
55914;BME280;58179;48.776;9.124;2023-04-03T08:07:38;98192.28;;;6.08;100.00
55914;BME280;58179;48.776;9.124;2023-04-03T08:10:05;98180.97;;;6.14;100.00
55914;BME280;58179;48.776;9.124;2023-04-03T08:12:32;98190.25;;;6.23;100.00
55914;BME280;58179;48.776;9.124;2023-04-03T08:15:01;98192.47;;;6.26;100.00
55914;BME280;58179;48.776;9.124;2023-04-03T08:17:27;98195.69;;;6.35;100.00
55914;BME280;58179;48.776;9.124;2023-04-03T08:19:53;98189.44;;;6.36;100.00
55914;BME280;58179;48.776;9.124;2023-04-03T08:22:20;98193.06;;;6.41;100.00
55914;BME280;58179;48.776;9.124;2023-04-03T08:24:46;98198.50;;;6.40;100.00
55914;BME280;58179;48.776;9.124;2023-04-03T08:27:14;98191.41;;;6.47;100.00
55914;BME280;58179;48.776;9.124;2023-04-03T08:29:40;98192.03;;;6.55;100.00
55914;BME280;58179;48.776;9.124;2023-04-03T08:32:06;98189.78;;;6.66;100.00
55914;BME280;58179;48.776;9.124;2023-04-03T08:34:31;98187.34;;;6.71;100.00
55914;BME280;58179;48.776;9.124;2023-04-03T08:37:00;98195.41;;;6.69;100.00
55914;BME280;58179;48.776;9.124;2023-04-03T08:39:29;98187.53;;;6.69;100.00
55914;BME280;58179;48.776;9.124;2023-04-03T08:41:58;98192.56;;;6.77;100.00
55914;BME280;58179;48.776;9.124;2023-04-03T08:44:28;98189.97;;;6.71;100.00
55914;BME280;58179;48.776;9.124;2023-04-03T08:47:13;98193.41;;;6.71;100.00
55914;BME280;58179;48.776;9.124;2023-04-03T08:49:46;98199.88;;;6.75;100.00
55914;BME280;58179;48.776;9.124;2023-04-03T08:52:17;98187.72;;;6.81;100.00
55914;BME280;58179;48.776;9.124;2023-04-03T08:54:52;98185.91;;;6.81;100.00
55914;BME280;58179;48.776;9.124;2023-04-03T08:57:26;98189.31;;;6.88;100.00
55914;BME280;58179;48.776;9.124;2023-04-03T08:59:54;98193.50;;;7.03;100.00
55914;BME280;58179;48.776;9.124;2023-04-03T09:02:31;98201.97;;;7.18;100.00
55914;BME280;58179;48.776;9.124;2023-04-03T09:04:59;98206.38;;;7.24;100.00
55914;BME280;58179;48.776;9.124;2023-04-03T09:07:38;98200.03;;;7.38;100.00
55914;BME280;58179;48.776;9.124;2023-04-03T09:10:12;98200.78;;;7.52;100.00
55914;BME280;58179;48.776;9.124;2023-04-03T09:12:42;98198.97;;;7.46;100.00
55914;BME280;58179;48.776;9.124;2023-04-03T09:15:18;98211.75;;;7.49;100.00
55914;BME280;58179;48.776;9.124;2023-04-03T09:17:57;98201.03;;;7.44;100.00
55914;BME280;58179;48.776;9.124;2023-04-03T09:20:32;98198.41;;;7.44;100.00
55914;BME280;58179;48.776;9.124;2023-04-03T09:23:13;98202.00;;;7.49;100.00
55914;BME280;58179;48.776;9.124;2023-04-03T09:25:43;98202.78;;;7.56;100.00
55914;BME280;58179;48.776;9.124;2023-04-03T09:28:09;98204.53;;;7.69;100.00
55914;BME280;58179;48.776;9.124;2023-04-03T09:30:37;98202.03;;;7.81;100.00
55914;BME280;58179;48.776;9.124;2023-04-03T09:33:04;98197.53;;;7.88;100.00
55914;BME280;58179;48.776;9.124;2023-04-03T09:35:33;98198.34;;;7.88;100.00
55914;BME280;58179;48.776;9.124;2023-04-03T09:38:01;98195.91;;;7.87;100.00
55914;BME280;58179;48.776;9.124;2023-04-03T09:40:34;98202.59;;;7.83;100.00
55914;BME280;58179;48.776;9.124;2023-04-03T09:43:25;98201.72;;;7.64;100.00
55914;BME280;58179;48.776;9.124;2023-04-03T09:45:53;98200.97;;;7.57;100.00
55914;BME280;58179;48.776;9.124;2023-04-03T09:48:22;98204.81;;;7.54;100.00
55914;BME280;58179;48.776;9.124;2023-04-03T09:50:59;98200.44;;;7.42;100.00
55914;BME280;58179;48.776;9.124;2023-04-03T09:53:34;98200.28;;;7.36;100.00
55914;BME280;58179;48.776;9.124;2023-04-03T09:56:20;98206.97;;;7.32;100.00
55914;BME280;58179;48.776;9.124;2023-04-03T09:58:50;98199.91;;;7.26;100.00
55914;BME280;58179;48.776;9.124;2023-04-03T10:01:25;98195.25;;;7.22;100.00
55914;BME280;58179;48.776;9.124;2023-04-03T10:04:09;98190.66;;;7.11;100.00
55914;BME280;58179;48.776;9.124;2023-04-03T10:06:39;98189.47;;;7.00;100.00
55914;BME280;58179;48.776;9.124;2023-04-03T10:09:17;98187.91;;;6.86;100.00
55914;BME280;58179;48.776;9.124;2023-04-03T10:12:00;98183.66;;;6.78;100.00
55914;BME280;58179;48.776;9.124;2023-04-03T10:14:29;98183.69;;;6.72;100.00
55914;BME280;58179;48.776;9.124;2023-04-03T10:17:15;98177.63;;;6.71;100.00
55914;BME280;58179;48.776;9.124;2023-04-03T10:19:47;98180.66;;;6.75;100.00
55914;BME280;58179;48.776;9.124;2023-04-03T10:22:21;98183.66;;;6.78;100.00
55914;BME280;58179;48.776;9.124;2023-04-03T10:25:04;98180.84;;;6.73;100.00
55914;BME280;58179;48.776;9.124;2023-04-03T10:27:44;98182.66;;;6.79;100.00
55914;BME280;58179;48.776;9.124;2023-04-03T10:30:28;98179.81;;;6.87;100.00
55914;BME280;58179;48.776;9.124;2023-04-03T10:33:18;98179.75;;;7.00;100.00
55914;BME280;58179;48.776;9.124;2023-04-03T10:35:58;98176.28;;;7.13;100.00
55914;BME280;58179;48.776;9.124;2023-04-03T10:38:40;98169.91;;;7.27;100.00
55914;BME280;58179;48.776;9.124;2023-04-03T10:41:17;98185.84;;;7.39;100.00
55914;BME280;58179;48.776;9.124;2023-04-03T10:43:56;98178.56;;;7.41;100.00
55914;BME280;58179;48.776;9.124;2023-04-03T10:46:30;98184.03;;;7.39;100.00
55914;BME280;58179;48.776;9.124;2023-04-03T10:49:23;98177.00;;;7.27;100.00
55914;BME280;58179;48.776;9.124;2023-04-03T10:51:58;98170.78;;;7.15;100.00
55914;BME280;58179;48.776;9.124;2023-04-03T10:54:32;98166.81;;;6.99;100.00
55914;BME280;58179;48.776;9.124;2023-04-03T10:57:04;98174.75;;;6.86;100.00
55914;BME280;58179;48.776;9.124;2023-04-03T10:59:33;98175.38;;;6.81;100.00
55914;BME280;58179;48.776;9.124;2023-04-03T11:02:11;98180.19;;;6.84;100.00
55914;BME280;58179;48.776;9.124;2023-04-03T11:04:43;98177.13;;;6.94;100.00
55914;BME280;58179;48.776;9.124;2023-04-03T11:07:15;98172.06;;;7.06;100.00
55914;BME280;58179;48.776;9.124;2023-04-03T11:09:45;98171.59;;;7.15;100.00
55914;BME280;58179;48.776;9.124;2023-04-03T11:12:18;98170.78;;;7.15;100.00
55914;BME280;58179;48.776;9.124;2023-04-03T11:14:48;98170.38;;;7.18;100.00
55914;BME280;58179;48.776;9.124;2023-04-03T11:17:27;98172.41;;;7.09;100.00
55914;BME280;58179;48.776;9.124;2023-04-03T11:20:03;98174.03;;;7.10;100.00
55914;BME280;58179;48.776;9.124;2023-04-03T11:22:36;98176.72;;;7.04;100.00
55914;BME280;58179;48.776;9.124;2023-04-03T11:25:15;98167.59;;;7.06;100.00
55914;BME280;58179;48.776;9.124;2023-04-03T11:27:49;98159.84;;;7.18;100.00
55914;BME280;58179;48.776;9.124;2023-04-03T11:30:22;98159.38;;;7.27;100.00
55914;BME280;58179;48.776;9.124;2023-04-03T11:33:08;98162.78;;;7.34;100.00
55914;BME280;58179;48.776;9.124;2023-04-03T11:35:43;98165.66;;;7.26;100.00
55914;BME280;58179;48.776;9.124;2023-04-03T11:38:18;98158.97;;;7.24;100.00
55914;BME280;58179;48.776;9.124;2023-04-03T11:40:47;98169.59;;;7.11;100.00
55914;BME280;58179;48.776;9.124;2023-04-03T11:43:23;98160.34;;;6.95;100.00
55914;BME280;58179;48.776;9.124;2023-04-03T11:45:55;98153.44;;;6.94;100.00
55914;BME280;58179;48.776;9.124;2023-04-03T11:48:51;98156.28;;;6.92;100.00
55914;BME280;58179;48.776;9.124;2023-04-03T11:51:42;98156.53;;;6.91;100.00
55914;BME280;58179;48.776;9.124;2023-04-03T11:54:47;98156.50;;;6.97;100.00
55914;BME280;58179;48.776;9.124;2023-04-03T11:58:12;98149.34;;;7.11;100.00
55914;BME280;58179;48.776;9.124;2023-04-03T12:01:11;98151.09;;;7.24;100.00
55914;BME280;58179;48.776;9.124;2023-04-03T12:04:11;98135.28;;;7.24;100.00
55914;BME280;58179;48.776;9.124;2023-04-03T12:09:58;98136.81;;;7.38;100.00
55914;BME280;58179;48.776;9.124;2023-04-03T12:12:35;98131.34;;;7.39;100.00
55914;BME280;58179;48.776;9.124;2023-04-03T12:15:23;98135.41;;;7.42;100.00
55914;BME280;58179;48.776;9.124;2023-04-03T12:17:50;98143.66;;;7.46;100.00
55914;BME280;58179;48.776;9.124;2023-04-03T12:21:01;98131.66;;;7.56;100.00
55914;BME280;58179;48.776;9.124;2023-04-03T12:23:31;98136.72;;;7.58;100.00
55914;BME280;58179;48.776;9.124;2023-04-03T12:26:18;98128.81;;;7.58;100.00
55914;BME280;58179;48.776;9.124;2023-04-03T12:28:49;98134.69;;;7.53;100.00
55914;BME280;58179;48.776;9.124;2023-04-03T12:31:18;98139.41;;;7.51;100.00
55914;BME280;58179;48.776;9.124;2023-04-03T12:34:17;98132.72;;;7.49;100.00
55914;BME280;58179;48.776;9.124;2023-04-03T12:37:00;98129.16;;;7.36;100.00
55914;BME280;58179;48.776;9.124;2023-04-03T12:39:50;98127.09;;;7.38;100.00
55914;BME280;58179;48.776;9.124;2023-04-03T12:45:20;98124.00;;;7.48;100.00
55914;BME280;58179;48.776;9.124;2023-04-03T12:47:49;98118.91;;;7.53;100.00
55914;BME280;58179;48.776;9.124;2023-04-03T12:50:21;98121.31;;;7.55;100.00
55914;BME280;58179;48.776;9.124;2023-04-03T12:52:57;98129.06;;;7.50;100.00
55914;BME280;58179;48.776;9.124;2023-04-03T12:55:25;98122.03;;;7.44;100.00
55914;BME280;58179;48.776;9.124;2023-04-03T12:57:52;98122.28;;;7.35;100.00
55914;BME280;58179;48.776;9.124;2023-04-03T13:00:31;98116.84;;;7.24;100.00
55914;BME280;58179;48.776;9.124;2023-04-03T13:02:59;98114.81;;;7.26;100.00
55914;BME280;58179;48.776;9.124;2023-04-03T13:05:27;98123.09;;;7.29;100.00
55914;BME280;58179;48.776;9.124;2023-04-03T13:07:59;98115.19;;;7.36;100.00
55914;BME280;58179;48.776;9.124;2023-04-03T13:10:26;98122.38;;;7.47;100.00
55914;BME280;58179;48.776;9.124;2023-04-03T13:12:54;98117.66;;;7.56;100.00
55914;BME280;58179;48.776;9.124;2023-04-03T13:15:23;98123.03;;;7.67;100.00
55914;BME280;58179;48.776;9.124;2023-04-03T13:17:51;98113.81;;;7.83;100.00
55914;BME280;58179;48.776;9.124;2023-04-03T13:20:23;98109.94;;;7.86;100.00
55914;BME280;58179;48.776;9.124;2023-04-03T13:22:57;98110.84;;;7.98;100.00